N805AB KASE-KASE
Flight info
| Callsign | N805AB |
|---|---|
| Flight time | 0h 5m |
| Altitude | VFR |
| Route | /NNE FF/ |
| Aircraft | BE9L/L-VGD/C |
Departure
| Time | 2026-04-22 01:20 |
|---|---|
| Airport | Aspen-Pitkin County Airport (Sardy Field) (KASE) |
Arrival
| Time | 2026-04-22 01:26 |
|---|---|
| Airport | Aspen-Pitkin County Airport (Sardy Field) (KASE) |
| Time | Latitude | Longitude | Altitude | Speed | Heading |
|---|---|---|---|---|---|
| 2026-04-22 01:20 | 39.49787 | -106.99408 | 10987 ft | 225 kts | 196° |
| 2026-04-22 01:20 | 39.48228 | -106.99861 | 11010 ft | 235 kts | 195° |
| 2026-04-22 01:21 | 39.46591 | -107.00367 | 10910 ft | 246 kts | 197° |
| 2026-04-22 01:21 | 39.44926 | -107.00841 | 10984 ft | 245 kts | 191° |
| 2026-04-22 01:21 | 39.43253 | -107.00846 | 11166 ft | 245 kts | 175° |
| 2026-04-22 01:21 | 39.41615 | -107.00187 | 11183 ft | 252 kts | 153° |
| 2026-04-22 01:22 | 39.40400 | -106.98537 | 11189 ft | 261 kts | 127° |
| 2026-04-22 01:22 | 39.39212 | -106.96735 | 10846 ft | 260 kts | 151° |
| 2026-04-22 01:22 | 39.37561 | -106.96183 | 10527 ft | 237 kts | 180° |
| 2026-04-22 01:22 | 39.35959 | -106.95970 | 10169 ft | 231 kts | 169° |
| 2026-04-22 01:23 | 39.34492 | -106.95067 | 9847 ft | 237 kts | 149° |
| 2026-04-22 01:23 | 39.33173 | -106.93762 | 9618 ft | 239 kts | 148° |
| 2026-04-22 01:23 | 39.31774 | -106.92666 | 9505 ft | 232 kts | 154° |
| 2026-04-22 01:23 | 39.30379 | -106.91709 | 9433 ft | 223 kts | 156° |
| 2026-04-22 01:24 | 39.29036 | -106.90798 | 9269 ft | 215 kts | 154° |
| 2026-04-22 01:24 | 39.27782 | -106.89814 | 8881 ft | 206 kts | 152° |
| 2026-04-22 01:24 | 39.26633 | -106.88909 | 8390 ft | 183 kts | 155° |
| 2026-04-22 01:24 | 39.25510 | -106.88396 | 8086 ft | 161 kts | 165° |
| 2026-04-22 01:25 | 39.24505 | -106.87933 | 7895 ft | 152 kts | 156° |
| 2026-04-22 01:25 | 39.23609 | -106.87496 | 7773 ft | 125 kts | 163° |
| 2026-04-22 01:25 | 39.22846 | -106.87135 | 7719 ft | 106 kts | 163° |
| 2026-04-22 01:25 | 39.22275 | -106.86865 | 7754 ft | 70 kts | 159° |
| 2026-04-22 01:26 | 39.22012 | -106.86691 | 7776 ft | 11 kts | 90° |
| 2026-04-22 01:26 | 39.22035 | -106.86560 | 7781 ft | 15 kts | 101° |